首页
METAR-TAF:

METAR-TAF

机场 :

索契國際機場

索契, 俄罗斯

纬度: 43-26N, 经度: 039-54E, 海拔: 16米

当前天气观测

该预报发布于26分钟前的16:00 UTC
风速12节,风向东北
温度 8°C
湿度 57%
气压 1010 hPa
能见度10公里或以上

METAR: URSS 121600Z 04006MPS 9999 NSC 08/M00 Q1010 R02/010070 R06/010070 NOSIG RMK R06/04003G07MPS QFE756

时间: 20:26 (16:26 UTC)

预报

该预报发布于2小时和29分钟前的13:57 UTC
预报有效从12日的 15点(UTC)到 13日的 15点(UTC)
风速12节,风向东北
能见度10公里或以上
成为
从 13日的 09点(UTC)到 13日的 10点(UTC)
风速2节,风向多变
成为
从 13日的 14点(UTC)到 13日的 15点(UTC)
风速14节,风向东北
散云层高于10000英尺

TAF: URSS 121357Z 1215/1315 05006MPS 9999 NSC BECMG 1309/1310 VRB01MPS BECMG 1314/1315 05007MPS SCT100

超过4000个机场的气象观测和天气预报(METAR&TAF报告)。

可查询的气象台以黄色和红色小点在地图上表示。

将鼠标移到小点上方,可查看气象台名称。

然后点击查看天气观测和预报。

如需切换地图:点击带黑十字的绿色按钮放大地图;点击带横线的绿色按钮缩小地图;或者点击绿色箭头查看邻近地区的地图。


METAR-TAF: